LTBL/IGI METAR and TAF weather

Enter ICAO airport designator
Station Type Date Time Source
LTBL METAR 2021/03/09 08:50 UTC NOAA

LTBL 090850Z 35005KT 9999 FEW040 BKN200 13/02 Q1016 NOSIG RMK RWY17 36006KT


Station Type Date Time Source
LTBL Decoded METAR 2021/03/09 08:50 UTC NOAA

Izmir / Cigli, Turkey (LTBL) 38-30N 027-01E 5M
Mar 09, 2021 - 03:50 AM EST / 2021.03.09 0850 UTC
Wind: from the N (350 degrees) at 6 MPH (5 KT):0
Visibility: greater than 7 mile(s):0
Sky conditions: mostly cloudy
Temperature: 55 F (13 C)
Dew Point: 35 F (2 C)
Relative Humidity: 47%
Pressure (altimeter): 30.00 in. Hg (1016 hPa)
ob: LTBL 090850Z 35005KT 9999 FEW040 BKN200 13/02 Q1016 NOSIG RMK RWY17 36006KT
cycle: 9

Station Type Date Time Source
LTBL TAF UTC NOAA

Error!

Example: see airport list